Terminal Aerodrome Forecast
Issued by NWS

Home | Current Version | Previous Version | Text Only | Print | Product List | Glossary On
Versions: 1 2 3 4 5 6 7 8 9 10 11 12 13 14 15 16 17 18 19 20 21 22 23 24 25 26 27 28 29 30 31 32 33 34 35 36 37 38 39 40
154
FTUS42 KRAH 260914 AAA
TAFINT
TAF AMD
KINT 260914Z 2609/2706 13005KT 3SM BR OVC004
      TEMPO 2609/2613 3SM -SHRA BR OVC004
     FM261500 19005KT 6SM BR OVC007
     FM261800 21008KT P6SM OVC050 PROB30 2621/2624 5SM -SHRA OVC025
     FM270000 18008KT 5SM SHRA BKN050=

USA.gov is the U.S. government's official web portal to all federal, state and local government web resources and services.